FFT4146 KLAX-KMCO
Flight info
| Callsign | FFT4146 |
|---|---|
| Flight time | N/A |
| Altitude | 37000 |
| Route | DOTSS2 CNERY BLH SALOM EWM CRGER/N0433F390 IAH J86 LEV CHRGE PRICY5 |
| Aircraft | A20N/M-SDE2E3FGHIRWXY/LB1 |
Departure
| Time | 2026-04-24 06:10 |
|---|---|
| Airport | Los Angeles International Airport (KLAX) |
Arrival
| Time | N/A |
|---|---|
| Airport | Orlando International Airport (KMCO) |
| Time | Latitude | Longitude | Altitude | Speed | Heading |
|---|---|---|---|---|---|
| 2026-04-24 05:28 | 33.94125 | -118.41420 | 120 ft | 0 kts | 300° |
| 2026-04-24 05:53 | 33.94118 | -118.41405 | 122 ft | 4 kts | 300° |
| 2026-04-24 05:53 | 33.94105 | -118.41377 | 123 ft | 4 kts | 300° |
| 2026-04-24 05:53 | 33.94092 | -118.41350 | 123 ft | 4 kts | 300° |
| 2026-04-24 05:54 | 33.94079 | -118.41322 | 123 ft | 4 kts | 298° |
| 2026-04-24 05:54 | 33.94078 | -118.41293 | 123 ft | 4 kts | 245° |
| 2026-04-24 05:54 | 33.94096 | -118.41275 | 123 ft | 4 kts | 195° |
| 2026-04-24 05:54 | 33.94106 | -118.41273 | 123 ft | 0 kts | 176° |
| 2026-04-24 06:00 | 33.94093 | -118.41273 | 123 ft | 5 kts | 181° |
| 2026-04-24 06:00 | 33.94043 | -118.41276 | 124 ft | 8 kts | 184° |
| 2026-04-24 06:00 | 33.93981 | -118.41279 | 124 ft | 10 kts | 178° |
| 2026-04-24 06:00 | 33.93909 | -118.41271 | 124 ft | 11 kts | 173° |
| 2026-04-24 06:01 | 33.93831 | -118.41259 | 125 ft | 12 kts | 173° |
| 2026-04-24 06:01 | 33.93763 | -118.41210 | 125 ft | 12 kts | 106° |
| 2026-04-24 06:01 | 33.93766 | -118.41106 | 126 ft | 14 kts | 83° |
| 2026-04-24 06:01 | 33.93780 | -118.40982 | 126 ft | 18 kts | 83° |
| 2026-04-24 06:02 | 33.93795 | -118.40828 | 126 ft | 22 kts | 84° |
| 2026-04-24 06:02 | 33.93814 | -118.40640 | 125 ft | 25 kts | 83° |
| 2026-04-24 06:02 | 33.93836 | -118.40444 | 123 ft | 25 kts | 84° |
| 2026-04-24 06:02 | 33.93854 | -118.40243 | 120 ft | 25 kts | 83° |
| 2026-04-24 06:03 | 33.93876 | -118.40039 | 118 ft | 25 kts | 83° |
| 2026-04-24 06:03 | 33.93896 | -118.39837 | 115 ft | 25 kts | 83° |
| 2026-04-24 06:03 | 33.93917 | -118.39630 | 112 ft | 25 kts | 83° |
| 2026-04-24 06:03 | 33.93938 | -118.39419 | 109 ft | 25 kts | 84° |
| 2026-04-24 06:04 | 33.93962 | -118.39212 | 107 ft | 25 kts | 82° |
| 2026-04-24 06:04 | 33.93983 | -118.39010 | 106 ft | 24 kts | 83° |
| 2026-04-24 06:04 | 33.94000 | -118.38809 | 105 ft | 24 kts | 83° |
| 2026-04-24 06:04 | 33.94020 | -118.38613 | 104 ft | 23 kts | 83° |
| 2026-04-24 06:05 | 33.94040 | -118.38421 | 103 ft | 23 kts | 82° |
| 2026-04-24 06:05 | 33.94060 | -118.38246 | 102 ft | 19 kts | 83° |
| 2026-04-24 06:05 | 33.94074 | -118.38108 | 101 ft | 11 kts | 82° |
| 2026-04-24 06:05 | 33.94079 | -118.38041 | 101 ft | 0 kts | 103° |
| 2026-04-24 06:07 | 33.94078 | -118.38039 | 100 ft | 1 kts | 104° |
| 2026-04-24 06:08 | 33.94074 | -118.38027 | 100 ft | 2 kts | 122° |
| 2026-04-24 06:08 | 33.94043 | -118.38003 | 100 ft | 7 kts | 164° |
| 2026-04-24 06:08 | 33.93998 | -118.38016 | 100 ft | 8 kts | 228° |
| 2026-04-24 06:08 | 33.93982 | -118.38062 | 101 ft | 0 kts | 261° |
| 2026-04-24 06:09 | 33.93982 | -118.38066 | 101 ft | 4 kts | 261° |
| 2026-04-24 06:09 | 33.93959 | -118.38281 | 102 ft | 60 kts | 263° |
| 2026-04-24 06:09 | 33.93875 | -118.39056 | 106 ft | 123 kts | 264° |
| 2026-04-24 06:10 | 33.93748 | -118.40287 | 122 ft | 172 kts | 263° |
| 2026-04-24 06:10 | 33.93582 | -118.41785 | 500 ft | 184 kts | 261° |
| 2026-04-24 06:10 | 33.93397 | -118.43290 | 1166 ft | 184 kts | 262° |
| 2026-04-24 06:11 | 33.92776 | -118.46359 | 2227 ft | 202 kts | 238° |
| 2026-04-24 06:11 | 33.91855 | -118.47741 | 2545 ft | 223 kts | 234° |
| 2026-04-24 06:11 | 33.90926 | -118.49289 | 3041 ft | 238 kts | 233° |
| 2026-04-24 06:11 | 33.89851 | -118.50911 | 3424 ft | 259 kts | 230° |
| 2026-04-24 06:12 | 33.88645 | -118.52594 | 3968 ft | 272 kts | 229° |
| 2026-04-24 06:12 | 33.87337 | -118.54265 | 4683 ft | 280 kts | 228° |
| 2026-04-24 06:12 | 33.86016 | -118.56006 | 5529 ft | 282 kts | 224° |
| 2026-04-24 06:12 | 33.84349 | -118.57115 | 6460 ft | 280 kts | 192° |
| 2026-04-24 06:13 | 33.82440 | -118.56983 | 7272 ft | 283 kts | 160° |
| 2026-04-24 06:13 | 33.80682 | -118.55932 | 8037 ft | 287 kts | 154° |
| 2026-04-24 06:13 | 33.78862 | -118.54930 | 8748 ft | 292 kts | 161° |
| 2026-04-24 06:13 | 33.76938 | -118.54150 | 9482 ft | 295 kts | 167° |
| 2026-04-24 06:14 | 33.76795 | -118.54100 | 9535 ft | 296 kts | 167° |
| 2026-04-24 06:14 | 33.75384 | -118.53645 | 10055 ft | 298 kts | 169° |
| 2026-04-24 06:14 | 33.73344 | -118.53060 | 10618 ft | 309 kts | 171° |
| 2026-04-24 06:14 | 33.71227 | -118.52283 | 10946 ft | 331 kts | 155° |
| 2026-04-24 06:15 | 33.69410 | -118.50488 | 11319 ft | 351 kts | 129° |
| 2026-04-24 06:15 | 33.68305 | -118.47857 | 11951 ft | 359 kts | 110° |
| 2026-04-24 06:15 | 33.67523 | -118.45014 | 12628 ft | 364 kts | 109° |
| 2026-04-24 06:15 | 33.66730 | -118.42128 | 13226 ft | 370 kts | 109° |
| 2026-04-24 06:16 | 33.65884 | -118.39160 | 13787 ft | 378 kts | 110° |
| 2026-04-24 06:16 | 33.65051 | -118.36160 | 14383 ft | 385 kts | 106° |
| 2026-04-24 06:16 | 33.64518 | -118.33009 | 14985 ft | 390 kts | 97° |
| 2026-04-24 06:16 | 33.64367 | -118.29769 | 15613 ft | 393 kts | 90° |
| 2026-04-24 06:17 | 33.64375 | -118.26489 | 16219 ft | 398 kts | 89° |
| 2026-04-24 06:17 | 33.64412 | -118.23176 | 16814 ft | 402 kts | 89° |
| 2026-04-24 06:17 | 33.64441 | -118.19826 | 17392 ft | 406 kts | 89° |
| 2026-04-24 06:17 | 33.64459 | -118.16417 | 17958 ft | 410 kts | 89° |
| 2026-04-24 06:18 | 33.64467 | -118.12997 | 18516 ft | 414 kts | 89° |
| 2026-04-24 06:18 | 33.64470 | -118.09548 | 19083 ft | 418 kts | 90° |
| 2026-04-24 06:18 | 33.64468 | -118.06077 | 19654 ft | 420 kts | 90° |
| 2026-04-24 06:18 | 33.64465 | -118.02567 | 20208 ft | 424 kts | 90° |